Time;durP1;ratioP1;P1;durP2;ratioP2;P2;SDS_P1;SDS_P2;PMS_P1;PMS_P2;Temp;Humidity;BMP_temperature;BMP_pressure;BME280_temperature;BME280_humidity;BME280_pressure;Samples;Min_cycle;Max_cycle;Signal;HPM_P1;HPM_P2
2022/10/01 00:02:07;;;;;;;;;10.33;9.00;;;26.25;101295.20;;;;117045;1192;25668;-58
2022/10/01 00:04:36;;;;;;;;;8.33;6.00;;;26.24;101299.41;;;;116976;1193;25277;-58
2022/10/01 00:07:09;;;;;;;;;4.67;3.33;;;26.25;101294.21;;;;117004;1193;25009;-58
2022/10/01 00:09:38;;;;;;;;;10.33;8.33;;;26.24;101295.63;;;;117094;1192;25036;-60
2022/10/01 00:12:06;;;;;;;;;9.00;6.67;;;26.24;101293.08;;;;117054;1193;25043;-59
2022/10/01 00:14:37;;;;;;;;;9.25;9.25;;;26.23;101293.90;;;;117035;1193;25160;-61
2022/10/01 00:17:06;;;;;;;;;7.25;7.25;;;26.21;101300.74;;;;117093;1191;25476;-64
2022/10/01 00:19:34;;;;;;;;;11.25;8.00;;;26.21;101302.12;;;;117039;1193;24823;-58
2022/10/01 00:22:03;;;;;;;;;4.00;3.00;;;26.19;101300.41;;;;117076;1193;25414;-59
2022/10/01 00:24:31;;;;;;;;;7.33;7.33;;;26.19;101299.45;;;;117053;1193;25541;-59
2022/10/01 00:26:59;;;;;;;;;7.25;7.25;;;26.18;101299.69;;;;117039;1193;25623;-59
2022/10/01 00:29:27;;;;;;;;;8.67;8.33;;;26.16;101300.20;;;;117027;1193;25631;-58
2022/10/01 00:31:57;;;;;;;;;9.50;9.25;;;26.17;101303.14;;;;117041;1193;25423;-59
2022/10/01 00:34:27;;;;;;;;;7.00;6.50;;;26.15;101311.46;;;;117079;1194;25504;-58
2022/10/01 00:36:55;;;;;;;;;11.00;7.25;;;26.16;101317.89;;;;116998;1193;25438;-58
2022/10/01 00:39:23;;;;;;;;;9.50;8.25;;;26.16;101317.55;;;;117079;1194;24875;-59
2022/10/01 00:41:52;;;;;;;;;10.33;10.00;;;26.16;101311.83;;;;117047;1194;24974;-59
2022/10/01 00:44:35;;;;;;;;;9.00;9.00;;;26.17;101312.10;;;;117008;1194;25559;-59
2022/10/01 00:47:12;;;;;;;;;9.00;8.00;;;26.16;101309.61;;;;117074;1194;25648;-59
2022/10/01 00:49:42;;;;;;;;;10.00;9.25;;;26.17;101302.96;;;;117035;1193;25427;-59
2022/10/01 00:52:15;;;;;;;;;8.33;7.67;;;26.18;101300.98;;;;117038;1193;25370;-58
2022/10/01 00:54:48;;;;;;;;;7.75;6.00;;;26.19;101303.45;;;;117036;1193;25505;-59
2022/10/01 00:57:20;;;;;;;;;8.75;7.00;;;26.21;101308.05;;;;117051;1194;25388;-59
2022/10/01 00:59:49;;;;;;;;;9.67;6.00;;;26.21;101306.17;;;;117073;1194;25586;-59
2022/10/01 01:02:18;;;;;;;;;9.33;6.33;;;26.22;101304.93;;;;117045;1193;25535;-59
2022/10/01 01:04:47;;;;;;;;;7.00;7.00;;;26.22;101311.09;;;;117039;1192;25489;-59
2022/10/01 01:07:15;;;;;;;;;11.00;9.50;;;26.21;101310.55;;;;117038;1194;25143;-59
2022/10/01 01:09:46;;;;;;;;;11.00;9.00;;;26.19;101311.77;;;;117058;1194;24935;-59
2022/10/01 01:12:25;;;;;;;;;8.00;6.00;;;26.19;101316.25;;;;117017;1194;25065;-59
2022/10/01 01:15:14;;;;;;;;;9.00;7.25;;;26.20;101318.48;;;;117043;1194;25432;-59
2022/10/01 01:18:01;;;;;;;;;7.00;7.00;;;26.21;101315.98;;;;117064;1194;25086;-59
2022/10/01 01:21:08;;;;;;;;;9.33;9.33;;;26.23;101321.76;;;;117061;1193;24729;-59
2022/10/01 01:24:02;;;;;;;;;10.00;9.00;;;26.27;101322.70;;;;117005;1192;25436;-59
2022/10/01 01:26:40;;;;;;;;;9.00;7.00;;;26.31;101323.42;;;;116949;1194;24807;-60
2022/10/01 01:29:41;;;;;;;;;10.00;8.00;;;26.31;101321.11;;;;117017;1194;25485;-59
2022/10/01 01:32:18;;;;;;;;;10.33;9.67;;;26.33;101325.61;;;;116917;1194;25414;-59
2022/10/01 01:34:48;;;;;;;;;13.00;11.50;;;26.29;101326.64;;;;117036;1194;25615;-59
2022/10/01 01:37:18;;;;;;;;;10.00;9.00;;;26.26;101328.83;;;;117111;1194;24833;-59
2022/10/01 01:39:50;;;;;;;;;8.00;8.00;;;26.23;101332.02;;;;117031;1194;25245;-59
2022/10/01 01:42:45;;;;;;;;;10.25;10.00;;;26.19;101329.62;;;;117058;1193;25461;-59
2022/10/01 01:45:18;;;;;;;;;11.33;7.67;;;26.21;101329.56;;;;117055;1193;25218;-59
2022/10/01 01:47:47;;;;;;;;;10.00;8.67;;;26.22;101326.39;;;;117057;1193;25160;-57
2022/10/01 01:50:16;;;;;;;;;10.75;10.75;;;26.19;101330.70;;;;117090;1193;25186;-58
2022/10/01 01:52:44;;;;;;;;;9.00;9.00;;;26.16;101331.17;;;;117054;1193;25050;-59
2022/10/01 01:55:13;;;;;;;;;10.75;8.75;;;26.14;101333.29;;;;117001;1193;25567;-59
2022/10/01 01:57:43;;;;;;;;;13.33;9.67;;;26.12;101338.93;;;;117021;1193;25149;-59
2022/10/01 02:00:13;;;;;;;;;15.25;11.75;;;26.11;101336.05;;;;117031;1193;25396;-59
2022/10/01 02:02:46;;;;;;;;;11.00;11.00;;;26.11;101338.17;;;;117075;1194;25207;-59
2022/10/01 02:05:18;;;;;;;;;10.00;10.00;;;26.10;101337.04;;;;117110;1193;24819;-59
2022/10/01 02:08:12;;;;;;;;;12.00;10.25;;;26.12;101339.77;;;;117139;1193;25651;-59
2022/10/01 02:10:54;;;;;;;;;14.25;13.00;;;26.13;101339.73;;;;117167;1193;25243;-59
2022/10/01 02:13:47;;;;;;;;;12.67;9.00;;;26.14;101340.58;;;;117123;1192;25281;-58
2022/10/01 02:16:29;;;;;;;;;7.00;7.00;;;26.14;101341.92;;;;117084;1193;25530;-58
2022/10/01 02:19:15;;;;;;;;;11.33;11.00;;;26.13;101341.09;;;;117024;1193;24826;-58
2022/10/01 02:21:57;;;;;;;;;10.25;10.25;;;26.15;101341.67;;;;117057;1192;26110;-59
2022/10/01 02:24:47;;;;;;;;;11.67;10.00;;;26.14;101347.80;;;;117025;1194;24875;-59
2022/10/01 02:27:31;;;;;;;;;8.00;7.67;;;26.16;101353.35;;;;117050;1193;25099;-58
2022/10/01 02:30:06;;;;;;;;;14.75;11.50;;;26.15;101356.34;;;;117041;1193;25451;-59
2022/10/01 02:32:37;;;;;;;;;7.00;6.75;;;26.16;101361.01;;;;117047;1193;25189;-58
2022/10/01 02:35:09;;;;;;;;;12.00;10.25;;;26.16;101362.73;;;;117054;1193;24876;-59
2022/10/01 02:37:39;;;;;;;;;11.67;11.67;;;26.16;101359.62;;;;117078;1193;25506;-59
2022/10/01 02:40:14;;;;;;;;;13.00;11.25;;;26.15;101353.48;;;;117032;1195;25587;-58
2022/10/01 02:42:48;;;;;;;;;13.00;12.33;;;26.12;101353.41;;;;117044;1193;24966;-58
2022/10/01 02:45:21;;;;;;;;;12.25;10.50;;;26.14;101354.78;;;;117058;1193;24944;-58
2022/10/01 02:47:56;;;;;;;;;15.25;12.50;;;26.13;101352.83;;;;117042;1192;25882;-59
2022/10/01 02:50:30;;;;;;;;;11.50;10.00;;;26.14;101352.42;;;;116987;1193;25292;-58
2022/10/01 02:53:03;;;;;;;;;15.25;12.00;;;26.14;101355.88;;;;116985;1194;25512;-58
2022/10/01 02:55:36;;;;;;;;;14.67;11.67;;;26.13;101355.58;;;;117030;1194;25043;-58
2022/10/01 02:58:06;;;;;;;;;15.00;11.75;;;26.12;101361.45;;;;117048;1193;24989;-58
2022/10/01 03:00:35;;;;;;;;;8.67;8.67;;;26.11;101359.65;;;;117085;1193;24854;-59
2022/10/01 03:03:03;;;;;;;;;10.25;9.00;;;26.08;101357.66;;;;117077;1194;25454;-59
2022/10/01 03:05:31;;;;;;;;;8.00;8.00;;;26.08;101354.51;;;;117037;1194;25693;-58
2022/10/01 03:08:00;;;;;;;;;14.75;12.25;;;26.06;101350.88;;;;117010;1194;25228;-58
2022/10/01 03:10:28;;;;;;;;;10.00;10.00;;;26.05;101347.23;;;;117061;1194;25643;-59
2022/10/01 03:12:59;;;;;;;;;11.25;10.75;;;26.04;101343.70;;;;117051;1194;24942;-58
2022/10/01 03:15:27;;;;;;;;;10.50;10.50;;;26.05;101341.39;;;;117039;1194;25409;-59
2022/10/01 03:17:56;;;;;;;;;11.33;9.00;;;26.05;101341.27;;;;117078;1194;24853;-58
2022/10/01 03:20:25;;;;;;;;;7.00;7.00;;;26.04;101339.40;;;;117050;1194;25089;-59
2022/10/01 03:22:54;;;;;;;;;13.50;12.75;;;26.04;101333.90;;;;117016;1194;25099;-59
2022/10/01 03:25:22;;;;;;;;;11.50;11.50;;;26.04;101327.91;;;;117028;1193;25504;-59
2022/10/01 03:27:51;;;;;;;;;10.25;10.25;;;26.05;101329.30;;;;116946;1192;25226;-57
2022/10/01 03:30:21;;;;;;;;;11.00;8.25;;;26.05;101335.52;;;;117076;1193;24814;-58
2022/10/01 03:32:49;;;;;;;;;12.50;10.25;;;26.05;101334.03;;;;117107;1193;25257;-58
2022/10/01 03:35:17;;;;;;;;;13.67;12.33;;;26.05;101335.06;;;;117022;1192;25186;-58
2022/10/01 03:37:46;;;;;;;;;9.00;9.00;;;26.05;101337.27;;;;117019;1192;25546;-58
2022/10/01 03:40:15;;;;;;;;;11.75;10.00;;;26.05;101340.62;;;;117047;1194;25449;-58
2022/10/01 03:42:43;;;;;;;;;11.50;11.00;;;26.05;101343.02;;;;116967;1194;25113;-58
2022/10/01 03:45:11;;;;;;;;;16.33;8.33;;;26.04;101343.52;;;;117025;1194;25102;-58
2022/10/01 03:47:40;;;;;;;;;12.75;12.75;;;26.04;101342.83;;;;117045;1193;25050;-59
2022/10/01 03:50:08;;;;;;;;;13.25;12.00;;;26.04;101348.50;;;;117011;1194;25664;-59
2022/10/01 03:52:36;;;;;;;;;12.00;12.00;;;26.02;101345.47;;;;116966;1194;25522;-58
2022/10/01 03:55:05;;;;;;;;;11.00;10.67;;;26.04;101350.08;;;;117023;1194;24894;-58
2022/10/01 03:57:34;;;;;;;;;14.25;11.00;;;26.02;101356.16;;;;117031;1194;25480;-58
2022/10/01 04:00:04;;;;;;;;;12.75;12.75;;;26.03;101355.77;;;;117049;1193;24722;-58
2022/10/01 04:02:32;;;;;;;;;17.00;13.50;;;26.03;101357.38;;;;117087;1194;25681;-58
2022/10/01 04:05:01;;;;;;;;;14.00;12.00;;;26.03;101354.67;;;;117024;1192;25642;-58
2022/10/01 04:07:29;;;;;;;;;14.67;13.33;;;26.01;101354.41;;;;117036;1194;25507;-62
2022/10/01 04:09:57;;;;;;;;;13.50;12.00;;;26.01;101361.56;;;;116976;1193;25419;-67
2022/10/01 04:12:26;;;;;;;;;15.00;12.75;;;25.99;101366.15;;;;117003;1193;25162;-60
2022/10/01 04:14:54;;;;;;;;;6.00;3.75;;;25.98;101366.18;;;;117055;1193;25263;-58
2022/10/01 04:17:22;;;;;;;;;13.00;12.33;;;25.97;101370.64;;;;117006;1193;25137;-58
2022/10/01 04:19:51;;;;;;;;;8.50;7.50;;;25.98;101370.80;;;;116898;1193;25104;-58
2022/10/01 04:22:19;;;;;;;;;15.50;12.00;;;25.99;101371.78;;;;117052;1193;25243;-59
2022/10/01 04:24:48;;;;;;;;;14.00;11.00;;;26.00;101380.61;;;;117039;1193;25226;-59
2022/10/01 04:27:16;;;;;;;;;13.50;13.50;;;25.98;101386.61;;;;117041;1193;25515;-59
2022/10/01 04:29:44;;;;;;;;;14.00;14.00;;;25.99;101390.14;;;;116935;1193;25553;-59
2022/10/01 04:32:14;;;;;;;;;12.67;11.33;;;25.97;101390.83;;;;117080;1193;24984;-58
2022/10/01 04:34:52;;;;;;;;;12.33;12.33;;;25.98;101393.89;;;;117076;1192;25671;-58
2022/10/01 04:37:21;;;;;;;;;16.75;15.00;;;25.99;101395.78;;;;117004;1193;26422;-58
2022/10/01 04:39:49;;;;;;;;;17.33;13.00;;;25.96;101399.27;;;;117065;1193;24678;-59
2022/10/01 04:42:19;;;;;;;;;18.00;12.00;;;25.96;101403.87;;;;117012;1193;25072;-58
2022/10/01 04:44:47;;;;;;;;;17.75;13.25;;;25.96;101403.13;;;;117061;1193;24947;-59
2022/10/01 04:47:16;;;;;;;;;15.00;14.00;;;25.96;101400.84;;;;117042;1192;25302;-59
2022/10/01 04:49:44;;;;;;;;;12.50;12.50;;;25.97;101405.14;;;;117080;1193;25628;-59
2022/10/01 04:52:12;;;;;;;;;14.75;13.50;;;25.96;101404.80;;;;117041;1193;25154;-59
2022/10/01 04:54:41;;;;;;;;;19.25;12.75;;;25.98;101405.84;;;;117015;1193;25580;-59
2022/10/01 04:57:11;;;;;;;;;17.75;14.75;;;25.98;101407.63;;;;117038;1192;24836;-59
2022/10/01 04:59:39;;;;;;;;;17.33;14.00;;;25.96;101405.35;;;;117046;1193;25083;-59
2022/10/01 05:02:07;;;;;;;;;12.75;12.75;;;25.98;101405.97;;;;117043;1193;25230;-59
2022/10/01 05:04:36;;;;;;;;;14.67;13.00;;;25.99;101406.88;;;;116981;1193;25043;-59
2022/10/01 05:07:04;;;;;;;;;13.00;11.67;;;26.03;101411.51;;;;117026;1193;24924;-60
2022/10/01 05:09:33;;;;;;;;;13.67;12.33;;;26.02;101408.02;;;;117033;1193;25315;-59
2022/10/01 05:12:01;;;;;;;;;12.33;12.33;;;26.03;101410.08;;;;117029;1193;25131;-60
2022/10/01 05:14:30;;;;;;;;;21.50;17.25;;;26.02;101411.12;;;;117017;1193;25435;-60
2022/10/01 05:16:58;;;;;;;;;22.33;15.67;;;26.05;101414.41;;;;117073;1192;25465;-60
2022/10/01 05:19:29;;;;;;;;;26.00;19.25;;;26.07;101407.04;;;;117048;1193;24863;-59
2022/10/01 05:21:58;;;;;;;;;26.33;19.67;;;26.08;101403.15;;;;116834;1193;24791;-60
2022/10/01 05:24:28;;;;;;;;;23.00;16.25;;;26.13;101402.47;;;;117038;1193;25546;-59
2022/10/01 05:26:56;;;;;;;;;40.50;21.00;;;26.16;101400.50;;;;117048;1193;25028;-59
2022/10/01 05:29:25;;;;;;;;;26.67;22.67;;;26.14;101400.52;;;;117012;1194;25071;-59
2022/10/01 05:31:54;;;;;;;;;28.50;23.25;;;26.15;101399.51;;;;117064;1193;25105;-59
2022/10/01 05:34:23;;;;;;;;;23.25;18.00;;;26.14;101404.88;;;;117068;1193;24902;-59
2022/10/01 05:36:51;;;;;;;;;27.00;21.75;;;26.14;101409.53;;;;117072;1193;24881;-60
2022/10/01 05:39:19;;;;;;;;;23.50;17.75;;;26.14;101413.46;;;;117013;1193;25072;-60
2022/10/01 05:41:48;;;;;;;;;25.25;17.50;;;26.12;101423.73;;;;117064;1193;25021;-59
2022/10/01 05:44:16;;;;;;;;;18.00;13.50;;;26.10;101426.56;;;;117042;1193;25589;-59
2022/10/01 05:46:45;;;;;;;;;23.00;16.50;;;26.09;101431.74;;;;117066;1193;24741;-59
2022/10/01 05:49:15;;;;;;;;;29.00;16.67;;;26.10;101432.61;;;;116999;1194;25310;-59
2022/10/01 05:51:43;;;;;;;;;26.00;16.00;;;26.10;101438.27;;;;117087;1193;25592;-59
2022/10/01 05:54:12;;;;;;;;;20.50;16.75;;;26.12;101436.50;;;;117020;1194;24835;-58
2022/10/01 05:56:41;;;;;;;;;17.33;17.00;;;26.10;101437.41;;;;117028;1193;24974;-59
2022/10/01 05:59:09;;;;;;;;;30.00;22.67;;;26.07;101436.59;;;;117014;1193;25191;-59
2022/10/01 06:01:37;;;;;;;;;26.00;19.00;;;26.11;101434.52;;;;117049;1193;25594;-59
2022/10/01 06:04:06;;;;;;;;;19.00;18.25;;;26.09;101435.23;;;;117056;1193;25636;-60
2022/10/01 06:06:34;;;;;;;;;22.67;18.33;;;26.15;101440.93;;;;117059;1193;24932;-60
2022/10/01 11:30:46;;;;;;;;;19.25;16.00;;;25.12;101123.10;;;;116227;1203;23320;-64
2022/10/01 11:33:26;;;;;;;;;16.25;8.75;;;25.49;101123.64;;;;117076;1193;25095;-67
2022/10/01 11:36:00;;;;;;;;;14.25;11.25;;;25.79;101116.77;;;;117119;1193;25399;-65
2022/10/01 11:38:49;;;;;;;;;16.50;9.75;;;25.99;101117.61;;;;117082;1193;25268;-66
2022/10/01 11:41:32;;;;;;;;;18.50;10.75;;;26.14;101118.98;;;;117043;1193;25420;-64
2022/10/01 11:44:03;;;;;;;;;20.25;9.50;;;26.28;101120.09;;;;117059;1193;25002;-62
2022/10/01 11:46:52;;;;;;;;;15.75;10.00;;;26.39;101115.95;;;;116990;1192;25351;-64
2022/10/01 11:49:41;;;;;;;;;16.50;13.75;;;26.52;101105.59;;;;117044;1193;25243;-62
2022/10/01 11:52:18;;;;;;;;;18.25;12.00;;;26.59;101109.30;;;;117089;1193;25501;-64
2022/10/01 11:58:49;;;;;;;;;11.75;11.00;;;26.80;101105.23;;;;116858;1194;24997;-64
2022/10/01 12:01:27;;;;;;;;;9.50;7.25;;;26.84;101104.27;;;;117124;1193;25643;-64
2022/10/01 12:04:20;;;;;;;;;11.50;10.50;;;26.88;101105.82;;;;117012;1194;24789;-65
2022/10/01 12:06:49;;;;;;;;;8.00;7.00;;;26.92;101108.57;;;;117051;1194;25231;-64
2022/10/01 12:09:51;;;;;;;;;10.75;8.50;;;26.92;101110.54;;;;117094;1191;25212;-66
2022/10/01 12:12:32;;;;;;;;;10.33;6.67;;;26.95;101108.00;;;;117065;1194;25405;-64
2022/10/01 12:15:25;;;;;;;;;11.33;10.00;;;26.96;101101.27;;;;117100;1194;25625;-66
2022/10/01 12:17:58;;;;;;;;;11.00;10.33;;;26.98;101100.55;;;;117096;1193;25061;-68
2022/10/01 12:21:02;;;;;;;;;8.25;8.25;;;26.99;101101.85;;;;117028;1192;25407;-64
2022/10/01 12:23:38;;;;;;;;;9.00;8.50;;;27.11;101097.76;;;;117041;1194;25227;-65
2022/10/01 12:26:20;;;;;;;;;12.25;9.50;;;27.17;101090.79;;;;117057;1193;24962;-64
2022/10/01 12:29:39;;;;;;;;;7.50;7.25;;;27.22;101085.05;;;;117087;1192;25356;-65
2022/10/01 12:32:29;;;;;;;;;10.00;7.67;;;27.30;101079.33;;;;116892;1194;25614;-62
2022/10/01 12:35:37;;;;;;;;;9.00;6.50;;;27.28;101072.05;;;;117324;1191;24858;-63
2022/10/01 12:38:32;;;;;;;;;9.25;7.50;;;27.33;101064.55;;;;117016;1191;25027;-63
2022/10/01 12:41:26;;;;;;;;;8.50;6.25;;;27.38;101065.25;;;;117394;1190;24954;-64
2022/10/01 12:43:59;;;;;;;;;9.50;9.50;;;27.39;101065.23;;;;117249;1191;25177;-64
2022/10/01 12:46:41;;;;;;;;;8.75;7.00;;;27.38;101062.80;;;;117343;1191;25417;-64
2022/10/01 12:49:21;;;;;;;;;11.00;8.00;;;27.38;101059.98;;;;117427;1191;25253;-65
2022/10/01 12:52:18;;;;;;;;;7.50;7.50;;;27.39;101057.27;;;;117134;1193;25481;-65
2022/10/01 12:55:22;;;;;;;;;11.00;10.00;;;27.38;101048.27;;;;117163;1192;24850;-63
2022/10/01 12:58:01;;;;;;;;;10.00;8.75;;;27.42;101038.22;;;;117033;1193;25021;-64
2022/10/01 13:00:36;;;;;;;;;7.67;6.33;;;27.39;101033.52;;;;117152;1193;25689;-66
2022/10/01 13:03:26;;;;;;;;;12.00;8.00;;;27.43;101031.52;;;;117330;1191;25522;-64
2022/10/01 13:06:04;;;;;;;;;12.25;8.75;;;27.42;101021.00;;;;117068;1192;25521;-62
2022/10/01 13:08:51;;;;;;;;;9.00;7.50;;;27.45;101016.20;;;;117405;1189;25302;-63
2022/10/01 13:11:25;;;;;;;;;8.75;8.00;;;27.34;101016.54;;;;117396;1191;24798;-62
2022/10/01 13:13:54;;;;;;;;;8.67;5.33;;;27.29;101011.34;;;;117412;1190;25641;-64
2022/10/01 13:16:35;;;;;;;;;9.00;9.00;;;27.30;101005.73;;;;117376;1190;25299;-64
2022/10/01 13:19:13;;;;;;;;;11.00;8.00;;;27.31;101002.30;;;;117427;1190;25362;-64
2022/10/01 13:22:09;;;;;;;;;9.25;9.25;;;27.35;100996.63;;;;117406;1189;25621;-63
2022/10/01 13:24:44;;;;;;;;;9.25;9.25;;;27.34;100989.02;;;;117353;1189;25115;-63
2022/10/01 13:27:17;;;;;;;;;8.67;8.67;;;27.36;100982.88;;;;117424;1190;24754;-65
2022/10/01 13:29:58;;;;;;;;;8.00;8.00;;;27.35;100984.42;;;;117445;1190;25410;-61
2022/10/01 13:32:44;;;;;;;;;44.25;36.50;;;27.35;100979.39;;;;117425;1190;25378;-62
2022/10/01 13:35:29;;;;;;;;;453.00;364.75;;;27.33;100974.23;;;;117428;1190;25229;-60
2022/10/01 13:38:27;;;;;;;;;525.75;400.50;;;27.40;100969.34;;;;117435;1190;24956;-64
2022/10/01 13:41:02;;;;;;;;;511.50;393.00;;;27.42;100962.28;;;;117169;1191;25219;-62
2022/10/01 13:43:33;;;;;;;;;449.50;352.00;;;27.44;100960.55;;;;117394;1189;25354;-61
2022/10/01 13:46:11;;;;;;;;;324.50;265.50;;;27.47;100957.48;;;;117304;1191;25872;-61
2022/10/01 13:48:46;;;;;;;;;363.00;303.33;;;27.49;100951.27;;;;117394;1191;24742;-60
2022/10/01 13:51:14;;;;;;;;;333.00;256.00;;;27.47;100947.13;;;;117446;1190;25310;-60
2022/10/01 13:53:43;;;;;;;;;301.67;247.33;;;27.48;100937.89;;;;117523;1191;24694;-66
2022/10/01 13:56:14;;;;;;;;;283.33;218.33;;;27.59;100933.73;;;;118013;1190;25715;-62
2022/10/01 13:58:44;;;;;;;;;302.67;241.33;;;27.79;100934.19;;;;117851;1190;25209;-63
2022/10/01 14:01:15;;;;;;;;;237.00;192.00;;;27.83;100934.38;;;;117931;1190;25061;-63
2022/10/01 14:03:56;;;;;;;;;239.50;188.00;;;27.93;100931.41;;;;117852;1190;25483;-60
2022/10/01 14:06:42;;;;;;;;;254.00;206.00;;;28.02;100925.23;;;;117908;1189;25023;-62
2022/10/01 14:09:16;;;;;;;;;192.33;149.00;;;28.10;100916.26;;;;118313;1188;24829;-63
2022/10/01 14:17:30;;;;;;;;;163.00;130.00;;;28.17;100889.90;;;;117894;1189;25082;-60
2022/10/01 14:19:59;;;;;;;;;174.25;136.50;;;28.20;100887.92;;;;117924;1188;25443;-63
2022/10/01 14:22:48;;;;;;;;;138.00;106.67;;;28.24;100881.80;;;;117812;1191;25532;-65
2022/10/01 14:25:24;;;;;;;;;142.00;115.00;;;28.19;100875.71;;;;117822;1190;25419;-64
2022/10/01 14:28:10;;;;;;;;;135.25;117.50;;;28.21;100870.69;;;;117874;1191;24896;-63
2022/10/01 14:30:49;;;;;;;;;160.00;125.50;;;28.19;100863.59;;;;117898;1188;25269;-63
2022/10/01 14:33:23;;;;;;;;;125.75;104.25;;;28.27;100862.46;;;;117875;1190;25057;-64
2022/10/01 14:36:00;;;;;;;;;121.00;102.25;;;28.30;100858.60;;;;117937;1188;24979;-60
2022/10/01 14:38:29;;;;;;;;;131.00;104.25;;;28.33;100854.48;;;;118045;1188;25354;-59
2022/10/01 14:40:58;;;;;;;;;108.25;93.25;;;28.36;100854.17;;;;117836;1190;24802;-59
2022/10/01 14:43:28;;;;;;;;;115.67;94.67;;;28.35;100845.90;;;;117992;1190;25602;-67
2022/10/01 14:46:05;;;;;;;;;94.75;79.00;;;28.35;100840.05;;;;117987;1190;24908;-61
2022/10/01 14:48:36;;;;;;;;;75.00;57.00;;;28.37;100838.01;;;;117898;1190;24867;-65
2022/10/01 14:51:06;;;;;;;;;69.33;53.67;;;28.40;100834.34;;;;117901;1189;25155;-66
2022/10/01 14:53:36;;;;;;;;;71.33;53.33;;;28.42;100829.53;;;;117608;1189;25667;-76
2022/10/01 14:56:07;;;;;;;;;77.00;57.67;;;28.28;100831.11;;;;117990;1188;25817;-73
2022/10/01 14:58:42;;;;;;;;;67.33;52.33;;;28.43;100830.59;;;;118079;1190;24728;-74
2022/10/01 15:01:18;;;;;;;;;57.67;45.33;;;28.47;100823.11;;;;118105;1189;25492;-69
2022/10/01 15:03:47;;;;;;;;;53.67;43.67;;;28.49;100818.77;;;;117909;1189;25295;-65
2022/10/01 15:06:20;;;;;;;;;53.00;41.00;;;28.55;100818.16;;;;117961;1190;25579;-73
2022/10/01 15:08:53;;;;;;;;;57.67;45.00;;;28.53;100824.45;;;;117838;1190;25622;-62
2022/10/01 15:11:26;;;;;;;;;54.00;40.50;;;28.53;100827.20;;;;117943;1190;24838;-60
2022/10/01 15:14:01;;;;;;;;;49.00;40.00;;;28.58;100826.33;;;;117842;1190;25274;-64
2022/10/01 15:16:31;;;;;;;;;53.00;43.00;;;28.59;100824.95;;;;117926;1190;25502;-65
2022/10/01 15:19:02;;;;;;;;;50.33;37.33;;;28.61;100814.58;;;;117836;1189;24736;-68
2022/10/01 15:21:57;;;;;;;;;52.67;40.00;;;28.62;100812.13;;;;117928;1189;25568;-63
2022/10/01 15:24:32;;;;;;;;;45.33;38.33;;;28.66;100806.66;;;;117873;1190;24809;-68
2022/10/01 15:27:00;;;;;;;;;50.67;40.00;;;28.69;100808.71;;;;117960;1187;24941;-68
2022/10/01 15:29:29;;;;;;;;;46.50;35.50;;;28.69;100806.11;;;;118145;1188;25029;-66
2022/10/01 15:31:57;;;;;;;;;37.00;32.00;;;28.72;100801.83;;;;117950;1188;25450;-69
2022/10/01 15:34:26;;;;;;;;;48.00;37.00;;;28.76;100800.68;;;;118012;1189;25510;-64
2022/10/01 15:36:55;;;;;;;;;44.25;35.75;;;28.78;100798.21;;;;118172;1189;25541;-60
2022/10/01 15:39:33;;;;;;;;;46.50;34.25;;;28.80;100792.66;;;;118277;1186;25504;-63
2022/10/01 15:42:20;;;;;;;;;39.00;31.00;;;28.69;100791.05;;;;118249;1187;24858;-61
2022/10/01 15:44:49;;;;;;;;;41.50;33.00;;;28.73;100793.13;;;;117878;1188;24806;-62
2022/10/01 15:47:23;;;;;;;;;44.67;33.67;;;28.71;100795.06;;;;118015;1189;25590;-65
2022/10/01 15:50:09;;;;;;;;;36.33;33.00;;;28.71;100792.83;;;;117862;1189;24854;-65
2022/10/01 15:52:52;;;;;;;;;33.75;30.00;;;28.76;100791.88;;;;117468;1190;25183;-65
2022/10/01 15:55:42;;;;;;;;;32.33;28.00;;;28.60;100799.73;;;;117449;1188;25416;-65
2022/10/01 15:58:18;;;;;;;;;32.75;29.25;;;28.46;100795.13;;;;117366;1190;25705;-64
2022/10/01 16:00:47;;;;;;;;;32.50;30.25;;;28.40;100791.64;;;;118429;1190;24706;-65
2022/10/01 16:03:32;;;;;;;;;34.75;28.50;;;28.53;100792.30;;;;117422;1190;24822;-71
2022/10/01 16:06:02;;;;;;;;;35.50;29.75;;;28.42;100790.40;;;;117411;1190;25479;-66
2022/10/01 16:08:47;;;;;;;;;33.75;29.75;;;28.32;100788.46;;;;117462;1190;24930;-65
2022/10/01 16:11:19;;;;;;;;;28.00;25.50;;;28.27;100790.35;;;;117427;1190;25102;-66
2022/10/01 16:13:49;;;;;;;;;30.00;26.33;;;28.21;100786.55;;;;117411;1190;24961;-64
2022/10/01 16:16:26;;;;;;;;;29.00;26.33;;;28.16;100778.46;;;;117436;1190;25405;-65
2022/10/01 16:19:29;;;;;;;;;23.00;20.00;;;28.11;100769.06;;;;117412;1189;25296;-66
2022/10/01 16:22:31;;;;;;;;;27.00;21.67;;;28.11;100771.18;;;;117367;1190;25441;-63
2022/10/01 16:25:22;;;;;;;;;24.00;21.50;;;28.12;100767.30;;;;117427;1190;25455;-65
2022/10/01 16:28:02;;;;;;;;;30.00;28.00;;;28.13;100755.52;;;;117360;1190;25277;-65
2022/10/01 16:30:32;;;;;;;;;29.33;26.00;;;28.12;100745.71;;;;117477;1190;24952;-64
2022/10/01 16:33:04;;;;;;;;;24.50;20.50;;;28.07;100746.91;;;;117409;1191;25175;-65
2022/10/01 16:35:34;;;;;;;;;26.50;21.75;;;28.02;100748.38;;;;117438;1190;24834;-66
2022/10/01 16:38:07;;;;;;;;;27.25;22.25;;;27.98;100745.85;;;;117429;1189;25766;-65
2022/10/01 16:40:39;;;;;;;;;22.00;20.00;;;27.96;100748.23;;;;117395;1190;25401;-64
2022/10/01 16:43:17;;;;;;;;;27.33;25.00;;;27.95;100745.73;;;;117428;1190;24986;-64
2022/10/01 16:45:45;;;;;;;;;26.25;21.75;;;27.93;100740.30;;;;117396;1190;25319;-67
2022/10/01 16:48:18;;;;;;;;;34.50;24.50;;;27.93;100730.92;;;;117392;1190;25382;-64
2022/10/01 16:50:46;;;;;;;;;22.33;22.33;;;27.91;100721.41;;;;117427;1190;25444;-65
2022/10/01 16:53:17;;;;;;;;;27.00;24.75;;;27.88;100714.23;;;;117397;1190;24867;-65
2022/10/01 16:55:45;;;;;;;;;22.75;19.00;;;27.86;100708.02;;;;117413;1191;24827;-65
2022/10/01 16:58:14;;;;;;;;;26.75;20.75;;;27.85;100709.15;;;;117436;1189;25721;-64
2022/10/01 17:00:43;;;;;;;;;22.75;21.25;;;27.83;100702.06;;;;117389;1191;25310;-65
2022/10/01 17:03:17;;;;;;;;;31.00;27.00;;;27.81;100695.60;;;;117382;1189;25494;-64
2022/10/01 17:05:45;;;;;;;;;25.00;21.50;;;27.81;100691.00;;;;117353;1190;25313;-68
2022/10/01 17:08:14;;;;;;;;;26.00;22.33;;;27.79;100685.27;;;;117469;1190;25079;-65
2022/10/01 17:10:44;;;;;;;;;22.75;19.50;;;27.80;100673.92;;;;117422;1190;25414;-65
2022/10/01 17:13:13;;;;;;;;;26.00;21.00;;;27.79;100674.25;;;;117399;1191;25140;-65
2022/10/01 17:15:42;;;;;;;;;23.00;20.50;;;27.79;100667.61;;;;117473;1189;25627;-65
2022/10/01 17:18:11;;;;;;;;;24.67;20.33;;;27.78;100666.84;;;;117492;1190;25405;-66
2022/10/01 17:20:39;;;;;;;;;28.50;22.50;;;27.78;100663.73;;;;117498;1190;25435;-64
2022/10/01 17:23:09;;;;;;;;;29.00;23.75;;;27.76;100656.02;;;;117498;1188;25776;-67
2022/10/01 17:25:38;;;;;;;;;21.75;21.75;;;27.74;100646.28;;;;117466;1190;24830;-65
2022/10/01 17:28:13;;;;;;;;;23.75;20.75;;;27.74;100638.52;;;;117492;1188;25438;-64
2022/10/01 17:30:43;;;;;;;;;24.33;21.33;;;27.73;100631.54;;;;117513;1189;24784;-68
2022/10/01 17:33:13;;;;;;;;;24.00;23.50;;;27.72;100631.52;;;;117732;1188;25468;-65
2022/10/01 17:35:50;;;;;;;;;22.75;19.00;;;27.70;100629.87;;;;117505;1189;25498;-66
2022/10/01 17:38:19;;;;;;;;;26.50;22.50;;;27.70;100623.38;;;;117520;1189;25206;-67
2022/10/01 17:40:49;;;;;;;;;22.00;20.50;;;27.69;100618.50;;;;117794;1186;24981;-66
2022/10/01 17:43:23;;;;;;;;;21.50;18.50;;;27.67;100616.73;;;;117410;1190;25446;-64
2022/10/01 17:45:57;;;;;;;;;21.25;18.50;;;27.66;100620.50;;;;117819;1188;25358;-66
2022/10/01 17:48:27;;;;;;;;;22.33;21.33;;;27.63;100622.44;;;;117502;1188;25274;-64
2022/10/01 17:51:00;;;;;;;;;24.00;17.75;;;27.61;100626.34;;;;117837;1186;25248;-66